Terminal Aerodrome Forecast
Issued by NWS Wichita, KS

Home | Current Version | Previous Version | Text Only | Print | Product List | Glossary On
Versions: 1 2 3 4 5 6 7 8 9 10 11 12 13 14 15 16 17 18 19 20 21
000
FTUS43 KICT 310820 AAB
TAFICT
TAF AMD
KICT 310820Z 3108/0106 15010KT P6SM FEW007 SCT017 BKN070
     FM310900 14008KT P6SM VCTS BKN017 OVC070CB
      TEMPO 3110/3113 35010G20KT -TSRA BKN040CB
     FM311800 11006KT P6SM VCTS BKN040CB
     FM010200 02010KT P6SM SCT040=

USA.gov is the U.S. government's official web portal to all federal, state and local government web resources and services.